createdAt,value
2023-09-17T00:00:46.528Z,99478.94
2023-09-17T00:01:52.079Z,99476.13
2023-09-17T00:02:57.717Z,99477.06
2023-09-17T00:04:16.989Z,99479.34
2023-09-17T00:05:22.473Z,99472.41
2023-09-17T00:06:27.813Z,99468.19
2023-09-17T00:07:33.386Z,99482.55
2023-09-17T00:08:38.794Z,99471.92
2023-09-17T00:09:44.120Z,99478.2
2023-09-17T00:10:49.513Z,99473.95
2023-09-17T00:11:54.947Z,99483.28
2023-09-17T00:13:00.306Z,99481.94
2023-09-17T00:14:05.618Z,99485.55
2023-09-17T00:15:10.951Z,99481.11
2023-09-17T00:16:16.378Z,99479.77
2023-09-17T00:17:22.063Z,99475.11
2023-09-17T00:18:27.566Z,99475.41
2023-09-17T00:19:33.042Z,99476.34
2023-09-17T00:20:38.402Z,99483.06
2023-09-17T00:21:43.799Z,99482.33
2023-09-17T00:22:49.259Z,99471.06
2023-09-17T00:23:54.717Z,99463
2023-09-17T00:25:00.078Z,99460.63
2023-09-17T00:26:05.418Z,99473.45
2023-09-17T00:27:10.798Z,99466.73
2023-09-17T00:28:16.312Z,99460.61
2023-09-17T00:29:21.722Z,99452.34
2023-09-17T00:30:27.072Z,99454.01
2023-09-17T00:31:32.599Z,99464.75
2023-09-17T00:32:37.997Z,99472.42
2023-09-17T00:33:43.494Z,99474.17
2023-09-17T00:34:48.954Z,99473.23
2023-09-17T00:35:54.272Z,99476.04
2023-09-17T00:36:59.655Z,99470.75
2023-09-17T00:38:05.000Z,99473.84
2023-09-17T00:39:10.427Z,99462.58
2023-09-17T00:40:15.830Z,99476.13
2023-09-17T00:41:21.196Z,99457.09
2023-09-17T00:42:26.531Z,99455.98
2023-09-17T00:43:31.878Z,99454.52
2023-09-17T00:44:37.286Z,99457.63
2023-09-17T00:45:42.604Z,99456.81
2023-09-17T00:46:48.176Z,99456.7
2023-09-17T00:47:53.698Z,99452.78
2023-09-17T00:48:59.069Z,99457
2023-09-17T00:50:04.415Z,99454.84
2023-09-17T00:51:09.838Z,99463.52
2023-09-17T00:52:15.197Z,99464.95
2023-09-17T00:53:20.596Z,99447.08
2023-09-17T00:54:25.920Z,99463.72
2023-09-17T00:55:31.316Z,99458.94
2023-09-17T00:56:36.664Z,99464.66
2023-09-17T00:57:41.995Z,99466.94
2023-09-17T00:58:47.426Z,99461.33
2023-09-17T00:59:52.816Z,99468.47
2023-09-17T01:00:58.151Z,99472.09
2023-09-17T01:02:03.689Z,99472.09
2023-09-17T01:03:09.445Z,99484.18
2023-09-17T01:04:15.038Z,99472.99
2023-09-17T01:05:20.412Z,99475.39
2023-09-17T01:06:25.821Z,99475.99
2023-09-17T01:07:31.225Z,99479.41
2023-09-17T01:08:36.725Z,99475.16
2023-09-17T01:09:42.081Z,99474.77
2023-09-17T01:10:47.496Z,99475.99
2023-09-17T01:11:53.083Z,99470.41
2023-09-17T01:12:58.418Z,99464.55
2023-09-17T01:14:03.762Z,99475.7
2023-09-17T01:15:09.084Z,99466.38
2023-09-17T01:16:14.528Z,99460.28
2023-09-17T01:17:20.059Z,99459.35
2023-09-17T01:18:25.408Z,99467.84
2023-09-17T01:19:30.869Z,99462.47
2023-09-17T01:20:36.231Z,99458.95
2023-09-17T01:21:41.554Z,99452.63
2023-09-17T01:22:47.066Z,99463.38
2023-09-17T01:23:52.914Z,99467.02
2023-09-17T01:24:58.372Z,99469.78
2023-09-17T01:26:03.692Z,99466.06
2023-09-17T01:27:08.994Z,99468.55
2023-09-17T01:28:14.572Z,99475.27
2023-09-17T01:29:19.978Z,99471.84
2023-09-17T01:30:25.308Z,99466.48
2023-09-17T01:31:30.681Z,99460.67
2023-09-17T01:32:36.159Z,99467.82
2023-09-17T01:33:41.665Z,99461.28
2023-09-17T01:34:47.089Z,99459.94
2023-09-17T01:35:52.534Z,99465.44
2023-09-17T01:36:57.923Z,99468.94
2023-09-17T01:38:03.244Z,99470.08
2023-09-17T01:39:08.625Z,99480.3
2023-09-17T01:40:14.117Z,99474.73
2023-09-17T01:41:19.518Z,99478.05
2023-09-17T01:42:24.848Z,99471.02
2023-09-17T01:43:30.222Z,99473.09
2023-09-17T01:44:35.611Z,99476.27
2023-09-17T01:45:40.979Z,99473.59
2023-09-17T01:46:46.503Z,99471.42
2023-09-17T01:47:51.931Z,99460.94
2023-09-17T01:48:57.467Z,99473.7
2023-09-17T01:50:02.785Z,99469.45
2023-09-17T01:51:08.112Z,99467.7
2023-09-17T01:52:13.517Z,99477.31
2023-09-17T01:53:19.007Z,99465.55
2023-09-17T01:54:24.322Z,99469.33
2023-09-17T01:55:29.710Z,99458.86
2023-09-17T01:56:35.058Z,99464.34
2023-09-17T01:57:40.352Z,99474.17
2023-09-17T01:58:45.707Z,99475.84
2023-09-17T01:59:51.075Z,99469.33
2023-09-17T02:00:56.485Z,99463.74
2023-09-17T02:02:02.270Z,99467.98
2023-09-17T02:03:07.969Z,99469.73
2023-09-17T02:04:13.487Z,99464.89
2023-09-17T02:05:18.876Z,99458.66
2023-09-17T02:06:24.222Z,99457.33
2023-09-17T02:07:29.625Z,99446.27
2023-09-17T02:08:34.993Z,99456.62
2023-09-17T02:09:40.307Z,99455.69
2023-09-17T02:10:45.792Z,99450.72
2023-09-17T02:11:51.233Z,99465.16
2023-09-17T02:12:56.538Z,99447.8
2023-09-17T02:14:01.949Z,99462.67
2023-09-17T02:15:07.273Z,99462.48
2023-09-17T02:16:12.678Z,99456.8
2023-09-17T02:17:18.124Z,99456.06
2023-09-17T02:18:23.478Z,99464.88
2023-09-17T02:19:28.843Z,99456.06
2023-09-17T02:20:34.264Z,99452.97
2023-09-17T02:21:39.583Z,99459.99
2023-09-17T02:22:44.985Z,99447.7
2023-09-17T02:23:51.219Z,99456.19
2023-09-17T02:24:57.046Z,99443.95
2023-09-17T02:26:02.352Z,99446.45
2023-09-17T02:27:07.652Z,99447.52
2023-09-17T02:28:13.018Z,99449.56
2023-09-17T02:29:18.341Z,99454.93
2023-09-17T02:30:23.649Z,99454
2023-09-17T02:31:29.110Z,99448.53
2023-09-17T02:32:34.720Z,99455.05
2023-09-17T02:33:40.139Z,99453.48
2023-09-17T02:34:45.549Z,99459.07
2023-09-17T02:35:50.908Z,99444.59
2023-09-17T02:36:56.228Z,99450.06
2023-09-17T02:38:01.574Z,99446.87
2023-09-17T02:39:06.898Z,99453.48
2023-09-17T02:40:12.426Z,99451.33
2023-09-17T02:41:17.879Z,99450.47
2023-09-17T02:42:23.180Z,99443.45
2023-09-17T02:43:28.527Z,99450.06
2023-09-17T02:44:33.986Z,99448.72
2023-09-17T02:45:39.318Z,99450.16
2023-09-17T02:46:44.793Z,99457.19
2023-09-17T02:47:50.326Z,99460.59
2023-09-17T02:48:55.673Z,99457.3
2023-09-17T02:50:01.047Z,99457.83
2023-09-17T02:51:06.351Z,99461
2023-09-17T02:52:11.653Z,99460.59
2023-09-17T02:53:18.265Z,99447.98
2023-09-17T02:54:25.795Z,99459.44
2023-09-17T02:55:31.336Z,99460.9
2023-09-17T02:56:36.802Z,99464.81
2023-09-17T02:57:42.154Z,99455.22
2023-09-17T02:58:47.557Z,99454.91
2023-09-17T02:59:52.931Z,99460.16
2023-09-17T03:00:58.283Z,99462.66
2023-09-17T03:02:03.880Z,99461.92
2023-09-17T03:03:09.589Z,99457.58
2023-09-17T03:04:15.151Z,99459.95
2023-09-17T03:05:20.540Z,99465.64
2023-09-17T03:06:25.882Z,99451.98
2023-09-17T03:07:31.202Z,99459.45
2023-09-17T03:08:36.624Z,99456.14
2023-09-17T03:09:41.957Z,99465.84
2023-09-17T03:10:47.329Z,99451.27
2023-09-17T03:11:52.759Z,99447.75
2023-09-17T03:12:58.066Z,99459.24
2023-09-17T03:14:03.458Z,99453.46
2023-09-17T03:15:08.804Z,99456.34
2023-09-17T03:16:14.205Z,99453.13
2023-09-17T03:17:19.718Z,99459.44
2023-09-17T03:18:25.264Z,99450.22
2023-09-17T03:19:30.677Z,99458.41
2023-09-17T03:20:36.159Z,99451.67
2023-09-17T03:21:41.470Z,99458.7
2023-09-17T03:22:46.979Z,99457.88
2023-09-17T03:23:53.236Z,99469.03
2023-09-17T03:25:05.167Z,99466.45
2023-09-17T03:26:10.576Z,99463.33
2023-09-17T03:27:15.995Z,99458.58
2023-09-17T03:28:21.371Z,99458.67
2023-09-17T03:29:27.194Z,99454.66
2023-09-17T03:30:32.588Z,99457.75
2023-09-17T03:31:38.089Z,99452.47
2023-09-17T03:33:04.702Z,99459.09
2023-09-17T03:34:10.333Z,99450.83
2023-09-17T03:35:15.659Z,99452.08
2023-09-17T03:36:21.013Z,99450.31
2023-09-17T03:37:26.390Z,99456.11
2023-09-17T03:38:31.753Z,99450.94
2023-09-17T03:39:37.096Z,99446.91
2023-09-17T03:40:42.592Z,99444.61
2023-09-17T03:41:48.012Z,99453.09
2023-09-17T03:42:53.295Z,99457.56
2023-09-17T03:43:58.641Z,99449.88
2023-09-17T03:45:04.065Z,99460.85
2023-09-17T03:46:09.401Z,99449.47
2023-09-17T03:47:14.882Z,99462.19
2023-09-17T03:48:20.375Z,99454.66
2023-09-17T03:49:25.736Z,99444.7
2023-09-17T03:50:31.123Z,99455.16
2023-09-17T03:51:36.450Z,99452.75
2023-09-17T03:52:41.901Z,99453.09
2023-09-17T03:53:47.319Z,99460.11
2023-09-17T03:54:53.141Z,99455.68
2023-09-17T03:55:58.516Z,99453.17
2023-09-17T03:57:03.935Z,99446.45
2023-09-17T03:58:09.298Z,99461.16
2023-09-17T03:59:14.632Z,99462.06
2023-09-17T04:00:19.964Z,99463.61
2023-09-17T04:01:25.417Z,99448.02
2023-09-17T04:02:31.185Z,99452.66
2023-09-17T04:03:36.843Z,99450.49
2023-09-17T04:04:42.252Z,99453.17
2023-09-17T04:05:48.790Z,99448
2023-09-17T04:06:54.098Z,99457.2
2023-09-17T04:07:59.514Z,99454.59
2023-09-17T04:09:04.823Z,99450.88
2023-09-17T04:10:10.140Z,99463.2
2023-09-17T04:11:15.458Z,99459.58
2023-09-17T04:12:21.048Z,99459.05
2023-09-17T04:13:26.426Z,99456.25
2023-09-17T04:14:31.789Z,99460.69
2023-09-17T04:15:37.113Z,99465.55
2023-09-17T04:16:42.715Z,99446.03
2023-09-17T04:17:48.366Z,99461.12
2023-09-17T04:18:53.936Z,99464.41
2023-09-17T04:19:59.248Z,99462.57
2023-09-17T04:21:04.607Z,99455.1
2023-09-17T04:22:09.937Z,99459.55
2023-09-17T04:23:15.279Z,99471.52
2023-09-17T04:24:20.584Z,99452.94
2023-09-17T04:25:25.933Z,99467.2
2023-09-17T04:26:31.496Z,99464.62
2023-09-17T04:27:36.816Z,99456.14
2023-09-17T04:28:42.336Z,99467.2
2023-09-17T04:29:47.755Z,99468.21
2023-09-17T04:30:53.103Z,99466.16
2023-09-17T04:31:58.728Z,99463.45
2023-09-17T04:33:04.412Z,99478.13
2023-09-17T04:34:09.837Z,99464.47
2023-09-17T04:35:15.154Z,99472.47
2023-09-17T04:36:20.519Z,99471.2
2023-09-17T04:37:25.854Z,99465.92
2023-09-17T04:38:31.198Z,99472.55
2023-09-17T04:39:36.541Z,99469.45
2023-09-17T04:40:41.958Z,99470.8
2023-09-17T04:41:47.456Z,99462.09
2023-09-17T04:42:52.781Z,99465.82
2023-09-17T04:43:58.258Z,99466.53
2023-09-17T04:45:03.697Z,99473.05
2023-09-17T04:46:09.009Z,99470.66
2023-09-17T04:47:14.558Z,99473.05
2023-09-17T04:48:19.840Z,99473.26
2023-09-17T04:49:25.265Z,99479.56
2023-09-17T04:50:30.671Z,99468.91
2023-09-17T04:51:36.026Z,99466.95
2023-09-17T04:52:41.408Z,99466.95
2023-09-17T04:53:46.950Z,99474.38
2023-09-17T04:54:52.568Z,99472.2
2023-09-17T04:55:57.920Z,99472.8
2023-09-17T04:57:03.313Z,99490.41
2023-09-17T04:58:08.618Z,99493.5
2023-09-17T04:59:13.919Z,99488.3
2023-09-17T05:00:19.269Z,99491.75
2023-09-17T05:01:24.800Z,99489.64
2023-09-17T05:02:30.466Z,99500.7
2023-09-17T05:03:36.188Z,99487.07
2023-09-17T05:04:41.849Z,99497.09
2023-09-17T05:05:47.212Z,99481.89
2023-09-17T05:06:52.585Z,99482.83
2023-09-17T05:07:57.992Z,99489.26
2023-09-17T05:09:03.394Z,99493.36
2023-09-17T05:10:08.710Z,99482.3
2023-09-17T05:11:14.048Z,99487.17
2023-09-17T05:12:19.521Z,99486.03
2023-09-17T05:13:24.938Z,99483.16
2023-09-17T05:14:30.338Z,99485.02
2023-09-17T05:15:35.680Z,99488.63
2023-09-17T05:16:41.222Z,99477.13
2023-09-17T05:17:46.732Z,99482.91
2023-09-17T05:18:52.148Z,99482.09
2023-09-17T05:19:57.532Z,99494.08
2023-09-17T05:21:02.897Z,99483.41
2023-09-17T05:22:08.243Z,99487.56
2023-09-17T05:23:13.640Z,99495.17
2023-09-17T05:24:18.995Z,99494.88
2023-09-17T05:25:24.371Z,99498.7
2023-09-17T05:26:29.744Z,99495.7
2023-09-17T05:27:35.065Z,99498.37
2023-09-17T05:28:40.495Z,99507.61
2023-09-17T05:29:46.110Z,99513.91
2023-09-17T05:30:51.431Z,99509.08
2023-09-17T05:31:56.861Z,99502.68
2023-09-17T05:33:02.389Z,99502.16
2023-09-17T05:34:07.850Z,99506.91
2023-09-17T05:35:13.279Z,99503.11
2023-09-17T05:36:18.590Z,99497.83
2023-09-17T05:37:23.985Z,99505.69
2023-09-17T05:38:29.390Z,99508.2
2023-09-17T05:39:34.719Z,99507.68
2023-09-17T05:40:40.154Z,99515.63
2023-09-17T05:41:45.567Z,99515.2
2023-09-17T05:42:50.984Z,99509.11
2023-09-17T05:43:56.752Z,99514.08
2023-09-17T05:45:02.184Z,99509
2023-09-17T05:46:07.654Z,99516.17
2023-09-17T05:47:13.046Z,99510.99
2023-09-17T05:48:18.329Z,99510.89
2023-09-17T05:49:23.725Z,99509.33
2023-09-17T05:50:29.140Z,99511.7
2023-09-17T05:51:34.558Z,99514.22
2023-09-17T05:52:39.974Z,99518.66
2023-09-17T05:53:45.333Z,99520
2023-09-17T05:54:50.643Z,99515.13
2023-09-17T05:55:56.059Z,99523.92
2023-09-17T05:57:01.472Z,99524.73
2023-09-17T05:58:07.243Z,99527.53
2023-09-17T05:59:12.613Z,99516.03
2023-09-17T06:00:17.948Z,99520.6
2023-09-17T06:01:23.416Z,99527.72
2023-09-17T06:02:29.080Z,99522.22
2023-09-17T06:03:34.627Z,99528.33
2023-09-17T06:04:40.239Z,99521.48
2023-09-17T06:05:45.787Z,99537.09
2023-09-17T06:06:51.132Z,99525.41
2023-09-17T06:07:56.551Z,99532.25
2023-09-17T06:09:04.938Z,99533.26
2023-09-17T06:10:10.296Z,99533.97
2023-09-17T06:11:19.588Z,99534.19
2023-09-17T06:12:25.314Z,99524.99
2023-09-17T06:13:30.690Z,99535.75
2023-09-17T06:14:36.096Z,99533.16
2023-09-17T06:15:41.491Z,99527.89
2023-09-17T06:16:58.895Z,99531.73
2023-09-17T06:18:04.387Z,99526.66
2023-09-17T06:19:09.778Z,99521.63
2023-09-17T06:20:15.445Z,99529.23
2023-09-17T06:21:35.507Z,99533.26
2023-09-17T06:22:41.011Z,99519.52
2023-09-17T06:23:46.605Z,99523.66
2023-09-17T06:24:51.962Z,99523.73
2023-09-17T06:25:57.432Z,99529.45
2023-09-17T06:27:02.986Z,99522.91
2023-09-17T06:28:08.328Z,99527.34
2023-09-17T06:29:21.391Z,99532.34
2023-09-17T06:30:26.756Z,99534.08
2023-09-17T06:31:32.172Z,99534.08
2023-09-17T06:32:40.732Z,99530.47
2023-09-17T06:33:46.123Z,99529.65
2023-09-17T06:34:51.487Z,99530.99
2023-09-17T06:35:56.970Z,99518.37
2023-09-17T06:37:02.317Z,99527.98
2023-09-17T06:38:07.752Z,99514.83
2023-09-17T06:39:13.083Z,99529.23
2023-09-17T06:40:18.402Z,99523.02
2023-09-17T06:41:23.774Z,99527.48
2023-09-17T06:42:29.111Z,99517.52
2023-09-17T06:43:34.523Z,99525.3
2023-09-17T06:44:39.985Z,99521.67
2023-09-17T06:45:45.332Z,99513
2023-09-17T06:46:50.757Z,99532.34
2023-09-17T06:47:56.404Z,99521.47
2023-09-17T06:49:01.797Z,99521.69
2023-09-17T06:50:07.151Z,99521.27
2023-09-17T06:51:12.543Z,99519.7
2023-09-17T06:52:22.278Z,99530.8
2023-09-17T06:53:30.697Z,99520.75
2023-09-17T06:54:35.996Z,99513.84
2023-09-17T06:55:41.410Z,99522.03
2023-09-17T06:56:46.822Z,99519.55
2023-09-17T06:57:52.145Z,99524.11
2023-09-17T06:58:57.513Z,99523.62
2023-09-17T07:00:02.908Z,99520.3
2023-09-17T07:01:08.318Z,99514.83
2023-09-17T07:02:13.759Z,99513.78
2023-09-17T07:03:19.122Z,99529.2
2023-09-17T07:04:24.753Z,99521.45
2023-09-17T07:05:30.297Z,99522.79
2023-09-17T07:06:35.726Z,99517.83
2023-09-17T07:07:41.164Z,99517.75
2023-09-17T07:08:46.593Z,99529.55
2023-09-17T07:09:51.925Z,99531.8
2023-09-17T07:10:57.360Z,99527.06
2023-09-17T07:12:02.787Z,99529.84
2023-09-17T07:13:08.153Z,99521.77
2023-09-17T07:14:13.572Z,99525.3
2023-09-17T07:15:18.946Z,99529.54
2023-09-17T07:16:24.448Z,99521.41
2023-09-17T07:17:30.329Z,99528.41
2023-09-17T07:18:35.900Z,99525.73
2023-09-17T07:19:41.322Z,99528.83
2023-09-17T07:20:46.749Z,99534.2
2023-09-17T07:21:52.056Z,99525.73
2023-09-17T07:22:57.505Z,99524.7
2023-09-17T07:24:02.922Z,99522.42
2023-09-17T07:25:08.247Z,99532.58
2023-09-17T07:26:13.585Z,99528.41
2023-09-17T07:27:18.913Z,99537.76
2023-09-17T07:28:24.310Z,99536.3
2023-09-17T07:29:32.525Z,99526.66
2023-09-17T07:30:37.858Z,99539.72
2023-09-17T07:31:43.234Z,99533.42
2023-09-17T07:32:48.656Z,99539.72
2023-09-17T07:33:54.587Z,99545.5
2023-09-17T07:35:00.061Z,99540.02
2023-09-17T07:36:05.494Z,99544.46
2023-09-17T07:37:10.895Z,99537.25
2023-09-17T07:38:16.289Z,99543.03
2023-09-17T07:39:21.639Z,99526.36
2023-09-17T07:40:27.025Z,99542.7
2023-09-17T07:41:32.418Z,99532.08
2023-09-17T07:42:37.735Z,99546.76
2023-09-17T07:43:43.073Z,99545.83
2023-09-17T07:44:48.505Z,99543.14
2023-09-17T07:45:53.828Z,99534.24
2023-09-17T07:46:59.418Z,99540.15
2023-09-17T07:48:04.955Z,99546.37
2023-09-17T07:49:10.349Z,99535.69
2023-09-17T07:50:15.719Z,99544.91
2023-09-17T07:51:21.187Z,99547.59
2023-09-17T07:52:26.580Z,99544.31
2023-09-17T07:53:31.949Z,99541.19
2023-09-17T07:54:37.252Z,99541.22
2023-09-17T07:55:42.647Z,99538.39
2023-09-17T07:56:48.018Z,99544.59
2023-09-17T07:57:53.340Z,99548.75
2023-09-17T07:58:58.751Z,99550.64
2023-09-17T08:00:04.163Z,99547.95
2023-09-17T08:01:09.499Z,99550.55
2023-09-17T08:02:14.933Z,99552.72
2023-09-17T08:03:20.704Z,99549.09
2023-09-17T08:04:26.290Z,99548.14
2023-09-17T08:05:31.744Z,99549.09
2023-09-17T08:06:37.251Z,99552
2023-09-17T08:07:42.625Z,99554.08
2023-09-17T08:08:47.979Z,99541.65
2023-09-17T08:09:53.293Z,99545.09
2023-09-17T08:11:00.376Z,99548.81
2023-09-17T08:12:05.787Z,99546.13
2023-09-17T08:13:11.180Z,99548.81
2023-09-17T08:14:16.710Z,99538.38
2023-09-17T08:15:22.158Z,99544.78
2023-09-17T08:16:27.766Z,99541.79
2023-09-17T08:17:33.347Z,99540.89
2023-09-17T08:18:38.764Z,99534.67
2023-09-17T08:19:44.191Z,99542.53
2023-09-17T08:20:49.594Z,99533.94
2023-09-17T08:21:54.913Z,99539.64
2023-09-17T08:23:00.343Z,99541.81
2023-09-17T08:24:05.762Z,99539.53
2023-09-17T08:25:11.099Z,99541.2
2023-09-17T08:26:16.415Z,99531.06
2023-09-17T08:27:21.826Z,99541.5
2023-09-17T08:28:27.293Z,99535.63
2023-09-17T08:29:32.688Z,99529.92
2023-09-17T08:30:38.416Z,99528.69
2023-09-17T08:31:44.083Z,99538.52
2023-09-17T08:32:49.550Z,99533.23
2023-09-17T08:33:55.116Z,99532.32
2023-09-17T08:35:00.471Z,99524.77
2023-09-17T08:36:05.891Z,99538.11
2023-09-17T08:37:11.519Z,99532.93
2023-09-17T08:38:16.856Z,99534.48
2023-09-17T08:39:22.213Z,99531.28
2023-09-17T08:40:27.777Z,99530.98
2023-09-17T08:41:36.094Z,99534.17
2023-09-17T08:42:41.485Z,99528.78
2023-09-17T08:43:46.934Z,99532.23
2023-09-17T08:44:52.389Z,99532.23
2023-09-17T08:45:57.864Z,99529.34
2023-09-17T08:47:03.599Z,99523.55
2023-09-17T08:48:47.094Z,99534.3
2023-09-17T08:49:52.522Z,99520.77
2023-09-17T08:50:59.092Z,99532.23
2023-09-17T08:52:04.419Z,99521.58
2023-09-17T08:53:11.333Z,99519.3
2023-09-17T08:54:17.434Z,99524.38
2023-09-17T08:55:22.845Z,99520.05
2023-09-17T08:56:28.178Z,99523.78
2023-09-17T08:57:33.485Z,99520.58
2023-09-17T08:58:38.833Z,99520.37
2023-09-17T08:59:44.272Z,99523.99
2023-09-17T09:00:49.641Z,99535.15
2023-09-17T09:01:55.069Z,99524.2
2023-09-17T09:03:00.961Z,99525.45
2023-09-17T09:04:06.738Z,99523.89
2023-09-17T09:05:12.183Z,99525.64
2023-09-17T09:06:17.572Z,99522.23
2023-09-17T09:07:22.872Z,99518.22
2023-09-17T09:08:28.190Z,99527.33
2023-09-17T09:09:33.520Z,99520.3
2023-09-17T09:10:38.849Z,99526.09
2023-09-17T09:11:44.236Z,99526.91
2023-09-17T09:12:49.560Z,99522.68
2023-09-17T09:13:55.245Z,99520.09
2023-09-17T09:15:00.748Z,99519.89
2023-09-17T09:16:06.285Z,99518.22
2023-09-17T09:17:11.874Z,99512.32
2023-09-17T09:18:17.301Z,99522.8
2023-09-17T09:19:22.630Z,99520.1
2023-09-17T09:20:27.953Z,99522.38
2023-09-17T09:21:33.284Z,99527.76
2023-09-17T09:22:38.677Z,99524.62
2023-09-17T09:23:44.028Z,99525.48
2023-09-17T09:24:49.384Z,99528.25
2023-09-17T09:25:54.745Z,99521.53
2023-09-17T09:27:00.140Z,99510.59
2023-09-17T09:28:05.501Z,99525.35
2023-09-17T09:29:10.825Z,99523.09
2023-09-17T09:30:16.194Z,99530.12
2023-09-17T09:31:21.661Z,99523.59
2023-09-17T09:32:27.071Z,99521.32
2023-09-17T09:33:32.648Z,99517.59
2023-09-17T09:34:38.155Z,99522.68
2023-09-17T09:35:43.553Z,99517.29
2023-09-17T09:36:48.867Z,99521.33
2023-09-17T09:37:54.278Z,99520.09
2023-09-17T09:38:59.682Z,99517.91
2023-09-17T09:40:05.004Z,99522.07
2023-09-17T09:41:12.292Z,99519.78
2023-09-17T09:42:19.393Z,99527.25
2023-09-17T09:43:24.813Z,99522.07
2023-09-17T09:44:30.223Z,99510.48
2023-09-17T09:45:35.583Z,99513.67
2023-09-17T09:46:41.132Z,99512.95
2023-09-17T09:47:46.502Z,99507.89
2023-09-17T09:48:51.979Z,99515.36
2023-09-17T09:49:57.378Z,99508.2
2023-09-17T09:51:02.792Z,99505.63
2023-09-17T09:52:08.099Z,99513.69
2023-09-17T09:53:13.404Z,99505.42
2023-09-17T09:54:18.769Z,99505.42
2023-09-17T09:55:24.090Z,99503.88
2023-09-17T09:56:29.632Z,99500.14
2023-09-17T09:57:35.030Z,99503.35
2023-09-17T09:58:40.419Z,99494.36
2023-09-17T09:59:45.865Z,99501.91
2023-09-17T10:00:51.234Z,99507.09
2023-09-17T10:01:56.723Z,99495.48
2023-09-17T10:03:02.198Z,99506.47
2023-09-17T10:04:07.714Z,99507.49
2023-09-17T10:05:13.157Z,99501.09
2023-09-17T10:06:18.582Z,99509.58
2023-09-17T10:07:23.915Z,99506.25
2023-09-17T10:08:30.612Z,99508.34
2023-09-17T10:09:35.944Z,99498.63
2023-09-17T10:10:41.395Z,99505.64
2023-09-17T10:11:46.839Z,99504.42
2023-09-17T10:12:52.279Z,99502.64
2023-09-17T10:13:57.609Z,99505.05
2023-09-17T10:15:03.112Z,99505.03
2023-09-17T10:16:08.640Z,99503.48
2023-09-17T10:17:14.131Z,99506.48
2023-09-17T10:18:19.464Z,99503.69
2023-09-17T10:19:24.777Z,99504.01
2023-09-17T10:20:30.093Z,99505.87
2023-09-17T10:21:35.446Z,99506.48
2023-09-17T10:22:40.824Z,99506.69
2023-09-17T10:23:46.169Z,99493.66
2023-09-17T10:24:51.490Z,99497.7
2023-09-17T10:25:56.995Z,99493.88
2023-09-17T10:27:02.446Z,99502.77
2023-09-17T10:28:07.755Z,99509.38
2023-09-17T10:29:13.161Z,99496.66
2023-09-17T10:30:18.507Z,99505.26
2023-09-17T10:31:24.039Z,99490.14
2023-09-17T10:32:29.562Z,99499.44
2023-09-17T10:33:34.995Z,99489.41
2023-09-17T10:34:40.446Z,99503.89
2023-09-17T10:35:45.816Z,99507.64
2023-09-17T10:36:51.202Z,99502.27
2023-09-17T10:37:56.622Z,99499.77
2023-09-17T10:39:01.978Z,99498.64
2023-09-17T10:40:07.333Z,99496.24
2023-09-17T10:41:12.830Z,99497.79
2023-09-17T10:42:18.230Z,99488.69
2023-09-17T10:43:23.563Z,99486.64
2023-09-17T10:44:28.919Z,99497.17
2023-09-17T10:45:34.259Z,99499.86
2023-09-17T10:46:39.826Z,99499.66
2023-09-17T10:47:45.702Z,99501.22
2023-09-17T10:48:51.206Z,99497.79
2023-09-17T10:49:56.567Z,99493.25
2023-09-17T10:51:02.037Z,99498.52
2023-09-17T10:52:07.364Z,99489.42
2023-09-17T10:53:12.785Z,99488.19
2023-09-17T10:54:18.222Z,99492.13
2023-09-17T10:55:23.542Z,99486.64
2023-09-17T10:56:28.939Z,99491.39
2023-09-17T10:57:34.251Z,99487.34
2023-09-17T10:58:39.650Z,99488.6
2023-09-17T10:59:45.144Z,99482.81
2023-09-17T11:00:50.593Z,99488.6
2023-09-17T11:01:56.485Z,99494.8
2023-09-17T11:03:02.055Z,99495.95
2023-09-17T11:04:07.530Z,99489.23
2023-09-17T11:05:12.987Z,99490.25
2023-09-17T11:06:18.378Z,99490.98
2023-09-17T11:07:23.679Z,99487.16
2023-09-17T11:08:28.970Z,99484.34
2023-09-17T11:09:34.329Z,99492.05
2023-09-17T11:10:39.729Z,99491.53
2023-09-17T11:11:45.093Z,99486.47
2023-09-17T11:12:50.412Z,99482.52
2023-09-17T11:13:56.547Z,99482.21
2023-09-17T11:15:01.955Z,99489.34
2023-09-17T11:16:07.286Z,99486.48
2023-09-17T11:17:12.796Z,99483.99
2023-09-17T11:18:18.474Z,99487.62
2023-09-17T11:19:23.871Z,99487.91
2023-09-17T11:20:29.282Z,99484.28
2023-09-17T11:21:34.642Z,99485.22
2023-09-17T11:22:40.142Z,99485.73
2023-09-17T11:23:45.550Z,99485.53
2023-09-17T11:24:50.909Z,99485.73
2023-09-17T11:25:56.431Z,99492.34
2023-09-17T11:27:01.801Z,99493.8
2023-09-17T11:28:07.101Z,99484.36
2023-09-17T11:29:12.588Z,99485.81
2023-09-17T11:30:18.140Z,99479.62
2023-09-17T11:31:23.574Z,99493.59
2023-09-17T11:32:29.024Z,99493.07
2023-09-17T11:33:34.407Z,99494.73
2023-09-17T11:34:40.109Z,99492.87
2023-09-17T11:35:48.051Z,99491
2023-09-17T11:36:54.345Z,99496.3
2023-09-17T11:37:59.779Z,99491.84
2023-09-17T11:39:05.151Z,99491.23
2023-09-17T11:40:10.510Z,99492.67
2023-09-17T11:41:15.907Z,99490.18
2023-09-17T11:42:21.306Z,99488.02
2023-09-17T11:43:27.238Z,99483.66
2023-09-17T11:44:32.626Z,99482.64
2023-09-17T11:45:37.940Z,99486.06
2023-09-17T11:46:43.580Z,99483.37
2023-09-17T11:47:49.405Z,99482.44
2023-09-17T11:48:54.797Z,99487.08
2023-09-17T11:50:00.275Z,99484.72
2023-09-17T11:51:05.680Z,99481.17
2023-09-17T11:52:13.931Z,99481.17
2023-09-17T11:53:19.308Z,99484.8
2023-09-17T11:54:24.772Z,99478.56
2023-09-17T11:55:30.167Z,99476.73
2023-09-17T11:56:35.620Z,99469.68
2023-09-17T11:57:40.949Z,99481.91
2023-09-17T11:58:46.514Z,99477.47
2023-09-17T11:59:54.737Z,99468.17
2023-09-17T12:01:00.088Z,99469.81
2023-09-17T12:02:05.507Z,99475.59
2023-09-17T12:03:11.505Z,99474.25
2023-09-17T12:04:17.062Z,99468.46
2023-09-17T12:05:22.651Z,99468.98
2023-09-17T12:06:28.136Z,99468.14
2023-09-17T12:07:53.350Z,99470.14
2023-09-17T12:09:00.488Z,99464.11
2023-09-17T12:10:05.831Z,99468.47
2023-09-17T12:11:11.473Z,99466.52
2023-09-17T12:12:16.903Z,99467.45
2023-09-17T12:13:22.330Z,99465.98
2023-09-17T12:14:27.705Z,99464.52
2023-09-17T12:15:33.535Z,99458.33
2023-09-17T12:16:39.223Z,99455.63
2023-09-17T12:17:46.791Z,99460.93
2023-09-17T12:19:11.463Z,99463.91
2023-09-17T12:20:22.482Z,99451.52
2023-09-17T12:21:27.999Z,99466.31
2023-09-17T12:22:33.368Z,99467.42
2023-09-17T12:23:39.283Z,99460.81
2023-09-17T12:24:44.662Z,99452.54
2023-09-17T12:25:52.178Z,99451.2
2023-09-17T12:26:57.787Z,99452.75
2023-09-17T12:28:03.196Z,99451.81
2023-09-17T12:29:08.624Z,99455.94
2023-09-17T12:30:14.036Z,99449.02
2023-09-17T12:31:21.613Z,99450.23
2023-09-17T12:32:27.122Z,99451.59
2023-09-17T12:33:32.528Z,99446.73
2023-09-17T12:34:37.990Z,99439.92
2023-09-17T12:35:43.422Z,99439.4
2023-09-17T12:36:48.780Z,99441.67
2023-09-17T12:37:54.215Z,99443.02
2023-09-17T12:38:59.627Z,99438.66
2023-09-17T12:40:04.951Z,99443.52
2023-09-17T12:41:10.654Z,99447.47
2023-09-17T12:42:18.886Z,99438.14
2023-09-17T12:43:24.560Z,99435.98
2023-09-17T12:44:29.865Z,99441.36
2023-09-17T12:45:35.292Z,99438.14
2023-09-17T12:46:40.677Z,99445.19
2023-09-17T12:47:46.231Z,99442.38
2023-09-17T12:48:51.719Z,99443.11
2023-09-17T12:49:57.513Z,99445.8
2023-09-17T12:51:03.649Z,99448.08
2023-09-17T12:52:09.015Z,99442.7
2023-09-17T12:53:14.464Z,99444.78
2023-09-17T12:54:19.844Z,99437.44
2023-09-17T12:55:25.172Z,99438.58